Time;durP1;ratioP1;P1;durP2;ratioP2;P2;SDS_P1;SDS_P2;PMS_P1;PMS_P2;Temp;Humidity;BMP_temperature;BMP_pressure;BME280_temperature;BME280_humidity;BME280_pressure;Samples;Min_cycle;Max_cycle;Signal;HPM_P1;HPM_P2
2021/06/29 00:02:12;;;;;;;6.13;5.05;;;20.30;99.90;;;;;;5040658;28;20013;-63
2021/06/29 00:04:38;;;;;;;5.88;4.93;;;20.20;99.90;;;;;;5035180;28;20103;-65
2021/06/29 00:07:03;;;;;;;10.13;5.85;;;20.20;99.90;;;;;;5042764;28;20219;-63
2021/06/29 00:09:29;;;;;;;6.03;5.30;;;20.20;99.90;;;;;;5030973;28;20494;-65
2021/06/29 00:11:55;;;;;;;9.27;6.38;;;20.20;99.90;;;;;;5037808;28;20028;-63
2021/06/29 00:14:20;;;;;;;8.60;6.30;;;20.20;99.90;;;;;;5039186;28;20100;-64
2021/06/29 00:16:46;;;;;;;8.23;5.25;;;20.20;99.90;;;;;;5038438;28;20022;-63
2021/06/29 00:19:12;;;;;;;8.85;5.90;;;20.20;99.90;;;;;;5029708;28;20017;-58
2021/06/29 00:21:37;;;;;;;9.32;4.85;;;20.20;99.90;;;;;;5031506;28;20030;-63
2021/06/29 00:24:03;;;;;;;8.93;5.72;;;20.10;99.90;;;;;;5045001;28;20033;-64
2021/06/29 00:26:29;;;;;;;7.03;5.18;;;20.10;99.90;;;;;;5032787;28;20037;-65
2021/06/29 00:28:57;;;;;;;10.07;6.47;;;20.10;99.90;;;;;;5033236;28;20037;-63
2021/06/29 00:31:22;;;;;;;7.78;6.53;;;20.10;99.90;;;;;;5034847;28;20111;-63
2021/06/29 00:33:49;;;;;;;7.25;6.55;;;20.10;99.90;;;;;;5032531;28;20436;-62
2021/06/29 00:36:15;;;;;;;6.97;6.32;;;20.00;99.90;;;;;;5030300;28;20113;-63
2021/06/29 00:38:41;;;;;;;7.30;6.20;;;20.00;99.90;;;;;;5034616;28;20013;-62
2021/06/29 00:41:07;;;;;;;7.75;5.80;;;20.00;99.90;;;;;;5029514;28;20032;-63
2021/06/29 00:43:32;;;;;;;6.68;5.97;;;19.90;99.90;;;;;;5037463;28;20036;-64
2021/06/29 00:45:58;;;;;;;7.78;6.50;;;19.90;99.90;;;;;;5028117;28;20174;-63
2021/06/29 00:48:24;;;;;;;7.95;6.03;;;19.90;99.90;;;;;;5045780;28;20029;-63
2021/06/29 00:50:50;;;;;;;6.03;5.43;;;19.90;99.90;;;;;;5040693;28;20103;-64
2021/06/29 00:53:15;;;;;;;6.88;5.80;;;19.90;99.90;;;;;;5041570;28;20033;-63
2021/06/29 00:55:42;;;;;;;8.98;6.00;;;19.90;99.90;;;;;;5035346;28;20026;-64
2021/06/29 00:58:12;;;;;;;10.35;6.32;;;19.90;99.90;;;;;;5033313;28;20496;-65
2021/06/29 01:00:39;;;;;;;6.63;5.93;;;19.80;99.90;;;;;;5029306;28;20029;-64
2021/06/29 01:03:05;;;;;;;9.55;6.13;;;19.80;99.90;;;;;;5038421;28;20022;-64
2021/06/29 01:05:31;;;;;;;10.65;6.22;;;19.70;99.90;;;;;;5039348;28;20032;-63
2021/06/29 01:07:57;;;;;;;7.55;6.18;;;19.70;99.90;;;;;;5038028;28;20029;-62
2021/06/29 01:10:23;;;;;;;6.43;5.72;;;19.70;99.90;;;;;;5031960;28;20467;-63
2021/06/29 01:12:48;;;;;;;9.10;5.57;;;19.70;99.90;;;;;;5031370;28;20502;-63
2021/06/29 01:15:14;;;;;;;8.68;5.90;;;19.60;99.90;;;;;;5035823;28;20021;-63
2021/06/29 01:17:40;;;;;;;10.63;6.38;;;19.60;99.90;;;;;;5037863;28;20029;-62
2021/06/29 01:20:08;;;;;;;6.90;5.28;;;19.60;99.90;;;;;;5027879;28;20060;-62
2021/06/29 01:22:34;;;;;;;6.50;5.15;;;19.60;99.90;;;;;;5030069;28;20109;-63
2021/06/29 01:24:59;;;;;;;6.93;6.05;;;19.50;99.90;;;;;;5028187;28;20163;-65
2021/06/29 01:27:41;;;;;;;8.40;5.25;;;19.50;99.90;;;;;;5027134;28;20030;-62
2021/06/29 01:32:38;;;;;;;7.75;5.45;;;19.40;99.90;;;;;;5028117;28;20124;-63
2021/06/29 01:35:09;;;;;;;8.02;5.45;;;19.40;99.90;;;;;;5028160;28;20535;-64
2021/06/29 01:37:36;;;;;;;6.30;5.45;;;19.40;99.90;;;;;;5030996;28;20057;-62
2021/06/29 01:40:07;;;;;;;5.35;4.28;;;19.40;99.90;;;;;;5031842;28;20022;-62
2021/06/29 01:42:33;;;;;;;5.55;4.32;;;19.30;99.90;;;;;;5032937;28;20101;-62
2021/06/29 01:45:00;;;;;;;8.50;5.78;;;19.30;99.90;;;;;;5032825;28;20125;-63
2021/06/29 01:47:39;;;;;;;5.93;5.07;;;19.30;99.90;;;;;;5032320;28;20068;-64
2021/06/29 01:50:18;;;;;;;7.53;5.28;;;19.20;99.90;;;;;;5029409;28;20029;-63
2021/06/29 01:52:44;;;;;;;5.13;4.63;;;19.20;99.90;;;;;;5045499;28;20032;-64
2021/06/29 01:55:11;;;;;;;9.30;4.97;;;19.30;99.90;;;;;;5030623;28;20033;-63
2021/06/29 01:57:39;;;;;;;10.20;4.97;;;19.30;99.90;;;;;;5031991;28;20505;-61
2021/06/29 02:00:08;;;;;;;8.57;4.50;;;19.30;99.90;;;;;;5032375;28;20368;-63
2021/06/29 02:02:34;;;;;;;6.47;4.32;;;19.20;99.90;;;;;;5028613;28;20490;-64
2021/06/29 02:04:59;;;;;;;6.07;5.03;;;19.20;99.90;;;;;;5031296;28;20067;-64
2021/06/29 02:07:25;;;;;;;5.90;4.10;;;19.20;99.90;;;;;;5029433;28;20037;-64
2021/06/29 02:09:50;;;;;;;8.43;4.70;;;19.20;99.90;;;;;;5030575;28;20026;-63
2021/06/29 02:12:16;;;;;;;6.43;4.32;;;19.10;99.90;;;;;;5030723;28;20044;-63
2021/06/29 02:14:42;;;;;;;7.55;4.50;;;19.10;99.90;;;;;;5029409;28;20037;-64
2021/06/29 02:17:08;;;;;;;7.72;4.55;;;19.00;99.90;;;;;;5037644;28;20017;-63
2021/06/29 02:19:33;;;;;;;7.40;5.50;;;19.00;99.90;;;;;;5030808;28;20033;-63
2021/06/29 02:21:59;;;;;;;5.43;4.68;;;19.00;99.90;;;;;;5031748;28;20502;-63
2021/06/29 02:24:25;;;;;;;5.80;4.88;;;18.90;99.90;;;;;;5030940;28;20025;-63
2021/06/29 02:26:50;;;;;;;8.93;4.78;;;18.90;99.90;;;;;;5030065;28;20554;-63
2021/06/29 02:29:16;;;;;;;8.65;4.80;;;18.80;99.90;;;;;;5031468;28;20444;-63
2021/06/29 02:31:41;;;;;;;6.53;4.90;;;18.70;99.90;;;;;;5030997;28;20036;-63
2021/06/29 02:34:07;;;;;;;5.18;4.40;;;18.70;99.90;;;;;;5031053;28;20100;-64
2021/06/29 02:36:32;;;;;;;5.35;4.70;;;18.70;99.90;;;;;;5028403;28;21153;-65
2021/06/29 02:38:58;;;;;;;5.90;4.80;;;18.60;99.90;;;;;;5031736;28;20021;-63
2021/06/29 02:41:24;;;;;;;8.20;6.22;;;18.60;99.90;;;;;;5030268;28;20360;-64
2021/06/29 02:43:50;;;;;;;6.13;4.97;;;18.60;99.90;;;;;;5031981;28;20140;-59
2021/06/29 02:46:15;;;;;;;7.30;4.47;;;18.60;99.90;;;;;;5029752;28;20029;-63
2021/06/29 02:48:41;;;;;;;6.70;5.03;;;18.60;99.90;;;;;;5031555;28;20036;-63
2021/06/29 02:51:07;;;;;;;5.93;4.88;;;18.60;99.90;;;;;;5030250;28;20469;-64
2021/06/29 02:53:32;;;;;;;5.03;4.53;;;18.60;99.90;;;;;;5030102;28;20049;-64
2021/06/29 02:55:58;;;;;;;8.15;5.07;;;18.60;99.90;;;;;;5031226;28;20065;-64
2021/06/29 02:58:23;;;;;;;8.07;4.75;;;18.60;99.90;;;;;;5029974;28;20028;-64
2021/06/29 03:00:49;;;;;;;10.73;4.75;;;18.60;99.90;;;;;;5029688;28;20562;-65
2021/06/29 03:03:15;;;;;;;7.13;4.55;;;18.60;99.90;;;;;;5029977;28;20514;-65
2021/06/29 03:05:41;;;;;;;5.43;4.10;;;18.60;99.90;;;;;;5028474;28;20073;-63
2021/06/29 03:08:06;;;;;;;7.75;4.45;;;18.60;99.90;;;;;;5029104;28;20242;-61
2021/06/29 03:10:32;;;;;;;7.28;4.75;;;18.60;99.90;;;;;;5029192;28;20036;-64
2021/06/29 03:12:57;;;;;;;6.90;4.53;;;18.50;99.90;;;;;;5027295;28;20108;-65
2021/06/29 03:15:23;;;;;;;6.25;4.47;;;18.50;99.90;;;;;;5031771;28;20511;-63
2021/06/29 03:17:50;;;;;;;6.93;4.63;;;18.50;99.90;;;;;;5030356;28;20299;-59
2021/06/29 03:20:16;;;;;;;5.22;4.70;;;18.50;99.90;;;;;;5029701;28;20037;-63
2021/06/29 03:22:42;;;;;;;5.47;4.90;;;18.50;99.90;;;;;;5032870;28;20598;-64
2021/06/29 03:25:09;;;;;;;9.48;3.95;;;18.40;99.90;;;;;;5038088;28;20033;-63
2021/06/29 03:27:35;;;;;;;6.75;3.90;;;18.40;99.90;;;;;;5029733;28;20037;-65
2021/06/29 03:30:01;;;;;;;7.45;4.38;;;18.40;99.90;;;;;;5030574;28;20064;-64
2021/06/29 03:32:27;;;;;;;4.65;4.25;;;18.40;99.90;;;;;;5029630;28;20025;-64
2021/06/29 03:34:52;;;;;;;6.63;4.70;;;18.40;99.90;;;;;;5029899;28;20410;-63
2021/06/29 03:37:18;;;;;;;5.63;4.85;;;18.50;99.90;;;;;;5030455;28;20027;-65
2021/06/29 03:39:43;;;;;;;5.72;4.20;;;18.50;99.90;;;;;;5029191;28;20049;-65
2021/06/29 03:42:09;;;;;;;5.53;4.00;;;18.50;99.90;;;;;;5027876;28;20052;-64
2021/06/29 03:44:35;;;;;;;8.02;5.05;;;18.60;99.90;;;;;;5029224;28;20021;-63
2021/06/29 03:47:00;;;;;;;6.15;4.30;;;18.60;99.90;;;;;;5030360;28;20026;-63
2021/06/29 03:49:26;;;;;;;6.55;4.70;;;18.70;99.90;;;;;;5028745;28;20033;-63
2021/06/29 03:51:53;;;;;;;7.13;4.30;;;18.80;99.90;;;;;;5031210;28;20044;-63
2021/06/29 03:54:19;;;;;;;8.85;3.83;;;18.80;99.90;;;;;;5037371;28;20032;-64
2021/06/29 03:56:45;;;;;;;4.00;3.60;;;18.80;99.90;;;;;;5028111;28;20402;-61
2021/06/29 03:59:10;;;;;;;7.32;4.70;;;19.00;99.90;;;;;;5030545;28;20107;-66
2021/06/29 04:01:37;;;;;;;4.95;4.05;;;19.00;99.90;;;;;;5028118;28;20649;-65
2021/06/29 04:04:03;;;;;;;5.22;3.80;;;19.10;99.90;;;;;;5029838;28;20076;-65
2021/06/29 04:06:32;;;;;;;9.13;3.85;;;19.20;99.90;;;;;;5028902;28;20109;-64
2021/06/29 04:08:59;;;;;;;4.90;4.07;;;19.30;99.90;;;;;;5029937;28;20033;-64
2021/06/29 04:11:26;;;;;;;4.45;3.60;;;19.40;99.90;;;;;;5029256;28;20124;-64
2021/06/29 04:13:52;;;;;;;6.15;3.38;;;19.50;99.90;;;;;;5030576;28;20025;-61
2021/06/29 04:16:19;;;;;;;5.20;3.45;;;19.60;99.90;;;;;;5030170;28;20036;-64
2021/06/29 04:18:45;;;;;;;4.75;3.83;;;19.70;99.90;;;;;;5039000;28;20052;-64
2021/06/29 04:21:11;;;;;;;4.50;3.72;;;19.70;99.90;;;;;;5041982;28;20016;-64
2021/06/29 04:23:38;;;;;;;4.82;3.50;;;19.80;99.90;;;;;;5041118;28;20083;-64
2021/06/29 04:26:05;;;;;;;8.15;3.80;;;19.80;99.90;;;;;;5040247;28;20033;-64
2021/06/29 04:28:31;;;;;;;4.55;3.30;;;19.90;99.90;;;;;;5041971;28;20070;-64
2021/06/29 04:30:57;;;;;;;5.65;3.40;;;19.90;99.90;;;;;;5044521;28;20025;-64
2021/06/29 04:33:22;;;;;;;8.65;3.55;;;19.90;99.90;;;;;;5037614;28;20033;-63
2021/06/29 04:35:48;;;;;;;7.25;3.85;;;19.90;99.90;;;;;;5027702;28;20036;-63
2021/06/29 04:38:14;;;;;;;9.05;4.38;;;20.00;99.90;;;;;;5033518;28;20033;-66
2021/06/29 04:40:39;;;;;;;3.97;3.58;;;20.00;99.90;;;;;;5036818;28;20115;-65
2021/06/29 04:43:05;;;;;;;5.35;4.13;;;20.10;99.90;;;;;;5042244;28;20364;-62
2021/06/29 04:45:31;;;;;;;7.07;4.07;;;20.20;99.90;;;;;;5040433;28;20680;-65
2021/06/29 04:47:57;;;;;;;7.68;3.40;;;20.30;99.90;;;;;;5040246;28;20021;-63
2021/06/29 04:50:24;;;;;;;6.90;3.40;;;20.40;99.90;;;;;;5035694;28;20033;-65
2021/06/29 04:52:50;;;;;;;6.28;2.75;;;20.50;99.90;;;;;;5038344;28;20034;-65
2021/06/29 04:55:17;;;;;;;5.05;2.97;;;20.50;99.90;;;;;;5035879;28;20021;-65
2021/06/29 04:57:43;;;;;;;7.45;3.00;;;20.60;99.90;;;;;;5031507;28;20018;-64
2021/06/29 05:00:11;;;;;;;5.18;2.70;;;20.70;99.90;;;;;;5040056;28;20021;-65
2021/06/29 05:02:38;;;;;;;7.95;3.08;;;20.70;99.90;;;;;;5034206;28;20056;-65
2021/06/29 05:05:05;;;;;;;7.55;3.10;;;20.90;99.90;;;;;;5040751;28;20059;-64
2021/06/29 05:07:31;;;;;;;4.53;3.22;;;20.80;99.90;;;;;;5034556;28;20044;-65
2021/06/29 05:09:57;;;;;;;4.82;3.38;;;20.80;99.90;;;;;;5032552;28;20474;-65
2021/06/29 05:12:22;;;;;;;8.65;3.40;;;20.70;99.90;;;;;;5039181;28;20037;-64
2021/06/29 05:14:48;;;;;;;7.00;3.10;;;20.70;99.90;;;;;;5029781;28;20507;-64
2021/06/29 05:17:14;;;;;;;7.35;2.65;;;20.80;99.90;;;;;;5028554;28;20108;-64
2021/06/29 05:19:39;;;;;;;4.75;2.58;;;20.80;99.90;;;;;;5026659;28;20101;-65
2021/06/29 05:22:06;;;;;;;3.70;2.00;;;20.80;99.90;;;;;;5028180;28;20057;-65
2021/06/29 05:24:31;;;;;;;4.13;2.10;;;20.90;99.90;;;;;;5028831;28;20104;-64
2021/06/29 05:26:57;;;;;;;4.18;1.70;;;20.80;99.90;;;;;;5030002;28;20444;-65
2021/06/29 05:29:23;;;;;;;5.72;2.15;;;20.80;99.90;;;;;;5041692;28;20040;-64
2021/06/29 05:31:48;;;;;;;3.58;1.98;;;20.90;99.90;;;;;;5038846;28;20035;-65
2021/06/29 05:34:14;;;;;;;7.88;2.00;;;20.90;99.90;;;;;;5022601;28;20090;-67
2021/06/29 05:36:40;;;;;;;4.57;1.98;;;20.90;99.90;;;;;;5037009;28;20025;-65
2021/06/29 05:39:05;;;;;;;5.65;1.98;;;20.80;99.90;;;;;;5029136;28;20017;-66
2021/06/29 05:41:31;;;;;;;6.32;2.20;;;20.70;99.90;;;;;;5030577;28;20018;-66
2021/06/29 05:43:57;;;;;;;4.15;2.40;;;20.80;99.90;;;;;;5029925;28;20514;-67
2021/06/29 05:46:23;;;;;;;6.03;2.20;;;20.90;99.90;;;;;;5029976;28;20033;-65
2021/06/29 05:48:50;;;;;;;4.80;2.35;;;20.90;99.90;;;;;;5040966;28;20078;-65
2021/06/29 05:51:17;;;;;;;8.80;2.42;;;21.20;99.90;;;;;;5034308;28;20116;-64
2021/06/29 05:53:43;;;;;;;5.00;1.50;;;21.40;99.90;;;;;;5042334;28;20040;-62
2021/06/29 05:56:15;;;;;;;3.63;1.58;;;21.50;99.90;;;;;;5033870;28;20070;-65
2021/06/29 05:58:41;;;;;;;1.65;1.45;;;21.70;99.90;;;;;;5035485;28;20506;-66
2021/06/29 06:01:08;;;;;;;4.38;1.60;;;21.90;99.90;;;;;;5031270;28;20033;-64
2021/06/29 06:03:36;;;;;;;3.80;1.40;;;21.80;99.90;;;;;;5029459;28;20496;-66
2021/06/29 06:06:02;;;;;;;3.25;1.70;;;21.80;99.90;;;;;;5041464;28;20060;-64
2021/06/29 06:08:27;;;;;;;1.98;1.60;;;21.70;99.90;;;;;;5033626;28;20076;-64
2021/06/29 06:10:56;;;;;;;3.05;1.70;;;21.60;99.90;;;;;;5036703;28;20029;-65
2021/06/29 06:13:22;;;;;;;5.78;1.98;;;21.80;99.90;;;;;;5034678;28;20026;-65
2021/06/29 06:15:48;;;;;;;5.35;1.70;;;21.90;99.90;;;;;;5028657;28;20032;-65
2021/06/29 06:18:14;;;;;;;5.00;1.77;;;22.10;99.90;;;;;;5033965;28;20013;-65
2021/06/29 06:20:48;;;;;;;2.47;2.00;;;22.30;99.90;;;;;;5029445;28;20036;-64
2021/06/29 06:23:14;;;;;;;2.75;1.85;;;22.80;99.90;;;;;;5037743;28;20036;-63
2021/06/29 06:25:39;;;;;;;4.22;2.10;;;23.00;99.90;;;;;;5039129;28;20034;-64
2021/06/29 06:28:05;;;;;;;3.95;1.80;;;22.60;99.90;;;;;;5030938;28;20025;-64
2021/06/29 06:30:34;;;;;;;3.05;1.83;;;22.40;99.90;;;;;;5030554;28;20108;-64
2021/06/29 06:32:59;;;;;;;5.97;2.53;;;22.40;99.90;;;;;;5023448;28;20082;-66
2021/06/29 06:35:25;;;;;;;4.85;2.28;;;22.30;99.90;;;;;;5034145;28;20108;-65
2021/06/29 06:37:51;;;;;;;7.63;1.67;;;22.40;99.90;;;;;;5040507;28;20430;-60
2021/06/29 06:40:16;;;;;;;4.20;2.05;;;22.50;99.90;;;;;;5038434;28;20450;-65
2021/06/29 06:42:42;;;;;;;3.63;2.10;;;22.30;99.90;;;;;;5039907;28;20022;-64
2021/06/29 06:45:10;;;;;;;8.45;2.55;;;22.20;99.90;;;;;;5035338;28;20465;-64
2021/06/29 06:47:36;;;;;;;5.78;1.73;;;22.30;99.90;;;;;;5038956;28;20645;-62
2021/06/29 06:50:03;;;;;;;4.00;2.00;;;22.30;99.90;;;;;;5038221;28;20024;-64
2021/06/29 06:52:28;;;;;;;3.70;2.15;;;22.50;99.90;;;;;;5033953;28;20030;-65
2021/06/29 06:54:54;;;;;;;5.55;2.85;;;22.50;99.90;;;;;;5028785;28;20087;-65
2021/06/29 06:57:19;;;;;;;6.38;2.42;;;22.50;99.90;;;;;;5035071;28;20478;-65
2021/06/29 06:59:45;;;;;;;7.40;3.13;;;22.50;99.90;;;;;;5041127;28;20055;-65
2021/06/29 07:02:11;;;;;;;9.60;2.50;;;22.60;99.90;;;;;;5041097;28;20033;-65
2021/06/29 07:04:37;;;;;;;6.50;2.70;;;22.60;99.90;;;;;;5039963;28;20029;-67
2021/06/29 07:07:03;;;;;;;4.35;2.47;;;22.70;99.90;;;;;;5042473;28;20572;-65
2021/06/29 07:09:28;;;;;;;4.63;3.50;;;22.60;99.90;;;;;;5035024;28;20060;-64
2021/06/29 07:11:54;;;;;;;3.83;2.40;;;22.50;99.90;;;;;;5043629;28;20486;-63
2021/06/29 07:14:23;;;;;;;4.88;2.58;;;22.60;99.90;;;;;;5031553;28;20551;-65
2021/06/29 07:16:49;;;;;;;5.70;2.72;;;23.00;99.90;;;;;;5034720;28;20018;-64
2021/06/29 07:19:15;;;;;;;8.43;2.70;;;23.10;99.90;;;;;;5037016;28;20430;-64
2021/06/29 07:21:41;;;;;;;5.38;2.20;;;23.00;99.90;;;;;;5038809;28;20022;-64
2021/06/29 07:24:06;;;;;;;4.85;2.30;;;23.10;99.90;;;;;;5035028;28;20021;-66
2021/06/29 07:26:32;;;;;;;3.33;2.28;;;23.40;99.90;;;;;;5036966;28;20053;-65
2021/06/29 07:29:01;;;;;;;3.65;1.98;;;23.50;99.90;;;;;;5033211;28;20027;-65
2021/06/29 07:31:30;;;;;;;2.45;2.13;;;23.50;99.90;;;;;;5041876;28;20033;-65
2021/06/29 07:33:56;;;;;;;4.05;1.90;;;23.50;99.90;;;;;;5030477;28;20021;-65
2021/06/29 07:36:22;;;;;;;3.30;1.92;;;23.40;99.90;;;;;;5036394;28;20040;-60
2021/06/29 07:38:53;;;;;;;5.50;2.50;;;23.60;99.90;;;;;;5031634;28;20021;-65
2021/06/29 07:41:19;;;;;;;4.57;2.53;;;23.80;99.90;;;;;;5033441;28;20032;-65
2021/06/29 07:43:45;;;;;;;3.58;2.53;;;24.10;99.90;;;;;;5034203;28;20029;-65
2021/06/29 07:46:11;;;;;;;6.32;2.83;;;24.10;99.90;;;;;;5027148;28;20395;-65
2021/06/29 07:48:37;;;;;;;4.18;2.70;;;23.90;99.90;;;;;;5028342;28;20038;-65
2021/06/29 07:51:06;;;;;;;7.72;2.33;;;23.80;99.90;;;;;;5035674;28;20390;-65
2021/06/29 07:53:36;;;;;;;6.28;2.90;;;23.80;99.90;;;;;;5033962;28;20033;-65
2021/06/29 07:56:01;;;;;;;4.15;2.22;;;23.90;99.90;;;;;;5026267;28;20041;-64
2021/06/29 07:58:28;;;;;;;4.03;2.28;;;24.20;99.90;;;;;;5040622;28;20025;-64
2021/06/29 08:00:54;;;;;;;2.97;2.00;;;24.30;99.90;;;;;;5037925;28;20040;-65
2021/06/29 08:03:20;;;;;;;4.22;2.22;;;24.30;99.90;;;;;;5029873;28;20419;-64
2021/06/29 08:05:46;;;;;;;4.57;2.25;;;24.20;99.90;;;;;;5032009;28;20036;-63
2021/06/29 08:08:11;;;;;;;3.00;1.95;;;24.20;99.90;;;;;;5036927;28;20106;-65
2021/06/29 08:10:37;;;;;;;3.63;2.00;;;24.40;99.90;;;;;;5042702;28;20391;-65
2021/06/29 08:13:07;;;;;;;6.32;1.90;;;24.60;99.90;;;;;;5037690;28;20025;-65
2021/06/29 08:15:34;;;;;;;3.78;1.60;;;25.00;99.50;;;;;;5035217;28;20044;-65
2021/06/29 08:18:00;;;;;;;2.22;1.52;;;25.50;98.50;;;;;;5041915;28;20103;-65
2021/06/29 08:20:25;;;;;;;2.20;1.73;;;25.70;98.20;;;;;;5037271;28;20109;-63
2021/06/29 08:22:59;;;;;;;2.90;1.73;;;25.50;97.50;;;;;;5028617;28;20022;-66
2021/06/29 08:25:24;;;;;;;3.67;1.60;;;25.90;98.00;;;;;;5030704;28;20060;-66
2021/06/29 08:27:52;;;;;;;6.32;1.60;;;25.80;97.40;;;;;;5037064;28;20056;-66
2021/06/29 08:30:19;;;;;;;4.68;2.25;;;25.80;97.20;;;;;;5033440;28;20037;-66
2021/06/29 08:32:44;;;;;;;5.13;1.80;;;25.70;96.90;;;;;;5031930;28;20064;-66
2021/06/29 08:35:12;;;;;;;3.25;1.40;;;25.70;97.40;;;;;;5040012;28;20033;-65
2021/06/29 08:37:39;;;;;;;7.32;2.63;;;25.80;98.00;;;;;;5025630;28;20079;-65
2021/06/29 08:40:09;;;;;;;4.03;2.20;;;25.90;96.70;;;;;;5035145;28;20017;-64
2021/06/29 08:42:37;;;;;;;3.30;2.00;;;25.70;97.00;;;;;;5036894;28;20029;-67
2021/06/29 08:45:05;;;;;;;5.68;2.15;;;25.70;97.40;;;;;;5024356;28;20026;-65
2021/06/29 08:47:33;;;;;;;3.70;1.67;;;26.70;96.30;;;;;;5028698;28;20033;-65
2021/06/29 08:49:59;;;;;;;5.43;2.35;;;27.00;95.60;;;;;;5026347;28;20044;-65
2021/06/29 08:52:26;;;;;;;11.27;2.33;;;27.20;94.70;;;;;;5023898;28;20029;-64
2021/06/29 08:54:53;;;;;;;6.13;2.10;;;27.20;94.20;;;;;;5028125;28;20037;-63
2021/06/29 08:57:21;;;;;;;8.32;2.30;;;26.40;95.00;;;;;;5027980;28;20048;-65
2021/06/29 08:59:47;;;;;;;6.25;1.90;;;26.20;96.00;;;;;;5035867;28;20029;-65
2021/06/29 09:02:12;;;;;;;7.07;2.53;;;25.90;96.00;;;;;;5034598;28;20075;-64
2021/06/29 09:04:49;;;;;;;3.67;1.83;;;25.90;96.00;;;;;;5032305;28;20029;-65
2021/06/29 09:07:19;;;;;;;4.95;1.90;;;25.70;96.20;;;;;;5028823;28;20029;-65
2021/06/29 09:09:55;;;;;;;5.78;2.17;;;25.60;95.90;;;;;;5029982;28;20026;-64
2021/06/29 09:12:43;;;;;;;5.05;2.05;;;25.10;96.00;;;;;;5030881;28;20048;-64
2021/06/29 09:15:33;;;;;;;3.75;2.28;;;24.90;97.80;;;;;;5033216;28;20021;-65
2021/06/29 09:18:22;;;;;;;5.68;2.08;;;24.60;97.80;;;;;;5039786;28;20489;-65
2021/06/29 09:20:51;;;;;;;4.68;2.15;;;24.50;98.70;;;;;;5038233;28;20025;-65
2021/06/29 09:23:30;;;;;;;5.65;2.10;;;24.40;98.30;;;;;;5033797;28;20030;-65
2021/06/29 09:26:00;;;;;;;5.55;2.42;;;24.40;98.10;;;;;;5035566;28;20316;-64
2021/06/29 09:28:33;;;;;;;4.38;2.35;;;24.70;98.30;;;;;;5033596;28;20108;-65
2021/06/29 09:31:27;;;;;;;3.45;1.95;;;25.10;98.70;;;;;;5037872;28;20700;-66
2021/06/29 09:33:58;;;;;;;3.45;2.30;;;25.10;96.50;;;;;;5020421;28;20051;-63
2021/06/29 09:36:26;;;;;;;5.45;2.20;;;25.00;97.40;;;;;;5036129;28;20401;-65
2021/06/29 09:38:54;;;;;;;3.80;2.45;;;25.20;97.00;;;;;;5028907;28;20509;-65
2021/06/29 09:41:28;;;;;;;4.60;2.08;;;25.50;96.60;;;;;;5040781;28;20379;-66
2021/06/29 09:44:03;;;;;;;5.32;1.80;;;25.80;94.90;;;;;;5030954;28;20025;-61
2021/06/29 09:46:29;;;;;;;5.88;2.08;;;26.50;94.60;;;;;;5043327;28;20028;-66
2021/06/29 09:49:05;;;;;;;4.00;2.40;;;27.20;93.80;;;;;;5024934;28;20517;-66
2021/06/29 09:51:33;;;;;;;4.03;2.03;;;27.40;92.70;;;;;;5030655;28;20408;-66
2021/06/29 09:54:06;;;;;;;3.30;1.88;;;26.90;92.80;;;;;;5024264;28;20399;-65
2021/06/29 09:56:43;;;;;;;2.75;2.17;;;27.60;92.70;;;;;;5032790;28;20087;-63
2021/06/29 09:59:15;;;;;;;6.75;2.47;;;27.40;91.80;;;;;;5035898;28;20044;-64
2021/06/29 10:01:41;;;;;;;5.15;2.13;;;27.20;92.80;;;;;;5037165;28;20031;-65
2021/06/29 10:04:06;;;;;;;3.00;2.05;;;26.70;92.40;;;;;;5042076;28;20025;-64
2021/06/29 10:06:34;;;;;;;2.85;2.25;;;26.70;92.20;;;;;;5035523;28;20032;-64
2021/06/29 10:09:16;;;;;;;3.35;1.95;;;27.20;92.40;;;;;;5027109;28;20895;-64
2021/06/29 10:11:44;;;;;;;2.63;2.10;;;26.90;92.20;;;;;;5034213;28;20104;-65
2021/06/29 10:14:12;;;;;;;2.55;2.00;;;26.70;92.70;;;;;;5028870;28;20274;-65
2021/06/29 10:16:49;;;;;;;4.88;2.95;;;27.40;91.40;;;;;;5036491;28;20022;-65
2021/06/29 10:21:59;;;;;;;5.97;1.88;;;27.70;90.90;;;;;;5034980;28;20031;-64
2021/06/29 10:24:27;;;;;;;11.13;1.98;;;27.50;91.90;;;;;;5037761;28;20037;-65
2021/06/29 10:26:58;;;;;;;4.47;2.65;;;27.80;90.50;;;;;;5038157;28;20052;-65
2021/06/29 10:29:25;;;;;;;3.60;1.90;;;27.60;90.00;;;;;;5030379;28;20463;-66
2021/06/29 10:31:58;;;;;;;3.47;1.98;;;27.70;90.10;;;;;;5045655;28;20437;-65
2021/06/29 10:34:25;;;;;;;2.40;1.90;;;27.70;90.20;;;;;;5031066;28;20021;-67
2021/06/29 10:36:55;;;;;;;3.08;2.08;;;27.60;90.50;;;;;;5044874;28;20028;-65
2021/06/29 10:39:24;;;;;;;2.78;1.73;;;28.00;90.20;;;;;;5026513;28;20026;-66
2021/06/29 10:41:51;;;;;;;3.97;1.77;;;28.30;88.90;;;;;;5029066;28;20032;-66
2021/06/29 10:44:23;;;;;;;5.00;2.08;;;28.50;89.10;;;;;;5032109;28;20037;-66
2021/06/29 10:46:55;;;;;;;4.40;1.90;;;28.40;88.50;;;;;;5036011;28;20052;-65
2021/06/29 10:49:35;;;;;;;5.30;2.00;;;27.60;90.10;;;;;;5034614;28;20112;-65
2021/06/29 10:52:23;;;;;;;4.47;1.90;;;27.50;90.20;;;;;;5029803;28;20824;-65
2021/06/29 10:54:55;;;;;;;2.85;1.70;;;27.50;89.30;;;;;;5036170;28;20437;-65
2021/06/29 10:57:45;;;;;;;2.92;2.17;;;27.70;89.60;;;;;;5049471;28;20029;-65
2021/06/29 11:00:17;;;;;;;3.28;1.85;;;27.70;90.00;;;;;;5030589;28;20390;-65
2021/06/29 11:02:58;;;;;;;5.93;1.95;;;28.20;88.10;;;;;;5032023;28;20065;-66
2021/06/29 11:05:25;;;;;;;3.83;2.03;;;28.50;89.80;;;;;;5034167;28;20032;-65
2021/06/29 11:07:52;;;;;;;3.30;1.90;;;28.30;89.10;;;;;;5031760;28;20025;-66
2021/06/29 11:10:35;;;;;;;3.10;2.30;;;28.40;88.50;;;;;;5026648;28;20029;-67
2021/06/29 11:13:02;;;;;;;6.65;1.95;;;28.00;89.10;;;;;;5028689;28;20037;-65
2021/06/29 11:15:52;;;;;;;2.75;2.15;;;28.00;88.80;;;;;;5030066;28;20120;-66
2021/06/29 11:18:34;;;;;;;2.53;1.60;;;28.10;88.10;;;;;;5018765;28;20104;-67
2021/06/29 11:21:04;;;;;;;3.87;2.00;;;28.20;88.60;;;;;;5026568;28;20121;-66
2021/06/29 11:23:34;;;;;;;3.25;1.92;;;28.40;85.40;;;;;;5030065;28;20271;-66
2021/06/29 11:26:12;;;;;;;6.05;2.30;;;28.00;84.50;;;;;;5031691;28;20033;-66
2021/06/29 11:28:46;;;;;;;2.72;2.15;;;27.50;88.60;;;;;;5033884;28;20022;-66
2021/06/29 11:31:25;;;;;;;3.58;2.38;;;27.80;89.40;;;;;;5028367;28;20026;-66
2021/06/29 11:33:59;;;;;;;4.50;2.45;;;28.20;87.00;;;;;;5029848;28;20025;-66
2021/06/29 11:36:37;;;;;;;3.20;2.28;;;28.00;89.00;;;;;;5035396;28;20032;-67
2021/06/29 11:39:18;;;;;;;5.18;2.83;;;28.30;87.70;;;;;;5028035;28;20032;-66
2021/06/29 11:42:02;;;;;;;4.75;2.60;;;28.00;89.80;;;;;;5030313;28;20037;-65
2021/06/29 11:44:27;;;;;;;8.50;3.38;;;28.10;87.70;;;;;;5035694;28;20033;-66
2021/06/29 11:47:03;;;;;;;4.97;2.40;;;28.20;86.00;;;;;;5041023;28;20025;-66
2021/06/29 11:49:33;;;;;;;3.95;2.95;;;28.00;87.80;;;;;;5026956;28;20483;-66
2021/06/29 11:52:02;;;;;;;5.43;3.38;;;27.80;86.80;;;;;;5029481;28;20541;-66
2021/06/29 11:54:32;;;;;;;4.45;2.95;;;27.90;87.60;;;;;;5026773;28;20025;-65
2021/06/29 11:57:00;;;;;;;4.90;2.88;;;27.90;88.70;;;;;;5028819;28;20098;-66
2021/06/29 11:59:30;;;;;;;4.28;2.97;;;28.00;86.60;;;;;;5032962;28;20044;-65
2021/06/29 12:02:05;;;;;;;9.48;2.80;;;28.20;87.10;;;;;;5036379;28;20099;-63
2021/06/29 12:04:31;;;;;;;4.85;3.03;;;27.70;86.90;;;;;;5039225;28;20032;-66
2021/06/29 12:07:05;;;;;;;4.13;2.60;;;26.90;87.60;;;;;;5037915;28;20078;-66
2021/06/29 12:09:31;;;;;;;;;;;27.10;90.20;;;;;;5027329;28;20411;-66
2021/06/29 12:12:17;;;;;;;4.28;3.13;;;27.20;90.00;;;;;;5036057;28;19913;-66
2021/06/29 12:14:43;;;;;;;4.35;3.25;;;27.50;88.60;;;;;;5028482;28;20030;-62
2021/06/29 12:17:10;;;;;;;7.32;3.42;;;27.50;87.70;;;;;;5032769;28;20064;-63
2021/06/29 12:19:36;;;;;;;5.15;3.70;;;27.40;86.20;;;;;;5029019;28;20123;-66
2021/06/29 12:22:02;;;;;;;5.53;3.50;;;27.10;89.00;;;;;;5041236;28;20025;-66
2021/06/29 12:24:28;;;;;;;3.90;2.70;;;27.10;89.50;;;;;;5030206;28;20021;-65
2021/06/29 12:26:53;;;;;;;3.75;3.08;;;27.30;87.70;;;;;;5029065;28;20107;-66
2021/06/29 12:29:30;;;;;;;7.28;2.78;;;27.60;84.30;;;;;;5032034;28;20645;-65
2021/06/29 12:31:56;;;;;;;3.22;2.90;;;27.60;85.10;;;;;;5039863;28;20544;-66
2021/06/29 12:34:23;;;;;;;3.67;3.05;;;27.20;85.90;;;;;;5029355;28;20041;-65
2021/06/29 12:36:50;;;;;;;3.65;2.75;;;27.20;86.30;;;;;;5032372;28;20024;-65
2021/06/29 12:39:15;;;;;;;3.50;3.00;;;27.20;88.90;;;;;;5028243;28;20025;-66
2021/06/29 12:41:42;;;;;;;4.97;2.53;;;27.30;87.90;;;;;;5039873;28;20025;-65
2021/06/29 12:44:10;;;;;;;3.92;2.50;;;27.30;82.80;;;;;;5036765;28;20017;-65
2021/06/29 12:46:44;;;;;;;5.03;2.47;;;27.60;82.50;;;;;;5045576;28;20028;-65
2021/06/29 12:49:22;;;;;;;2.95;2.38;;;28.00;84.80;;;;;;5020084;28;20413;-65
2021/06/29 12:52:08;;;;;;;3.17;2.50;;;28.30;82.30;;;;;;5036353;28;20083;-65
2021/06/29 12:54:34;;;;;;;3.80;2.70;;;28.40;82.40;;;;;;5050159;28;20044;-65
2021/06/29 12:57:03;;;;;;;3.50;2.60;;;28.10;82.40;;;;;;5034258;28;20557;-65
2021/06/29 12:59:31;;;;;;;3.97;2.35;;;28.00;81.60;;;;;;5033471;28;20025;-66